Time;durP1;ratioP1;P1;durP2;ratioP2;P2;SDS_P1;SDS_P2;PMS_P1;PMS_P2;Temp;Humidity;BMP_temperature;BMP_pressure;BME280_temperature;BME280_humidity;BME280_pressure;Samples;Min_cycle;Max_cycle;Signal;HPM_P1;HPM_P2
2022/06/21 00:03:42;;;;;;;9.33;4.83;;;;;;;9.93;100.00;96456.63;10448076;28;20212;-57
2022/06/21 00:08:42;;;;;;;10.40;5.00;;;;;;;9.86;100.00;96458.22;10447895;28;20235;-54
2022/06/21 00:13:42;;;;;;;8.73;5.10;;;;;;;9.91;100.00;96461.22;10421655;28;996843;-53
2022/06/21 00:18:44;;;;;;;8.77;4.97;;;;;;;9.86;100.00;96466.06;10457825;28;20689;-54
2022/06/21 00:23:45;;;;;;;8.73;4.80;;;;;;;9.90;100.00;96462.97;10439593;28;20191;-53
2022/06/21 00:28:45;;;;;;;9.20;4.50;;;;;;;9.86;100.00;96466.06;10457763;28;20307;-53
2022/06/21 00:33:46;;;;;;;5.50;4.00;;;;;;;9.72;100.00;96459.66;10457292;28;20192;-55
2022/06/21 00:38:47;;;;;;;11.33;4.73;;;;;;;9.61;100.00;96451.09;10439260;28;20215;-53
2022/06/21 00:43:50;;;;;;;14.23;5.50;;;;;;;9.41;100.00;96473.22;10456775;28;20196;-54
2022/06/21 00:48:51;;;;;;;9.93;5.30;;;;;;;9.32;100.00;96471.53;10456378;28;20214;-55
2022/06/21 00:53:56;;;;;;;9.03;4.40;;;;;;;9.31;100.00;96475.13;10438946;28;20203;-53
2022/06/21 00:58:57;;;;;;;10.93;5.57;;;;;;;9.28;100.00;96473.66;10438058;28;20224;-55
2022/06/21 01:04:02;;;;;;;8.73;4.57;;;;;;;9.20;100.00;96474.41;10455966;28;20241;-55
2022/06/21 01:09:19;;;;;;;12.10;5.60;;;;;;;9.01;100.00;96480.66;10438015;28;20554;-57
2022/06/21 01:14:21;;;;;;;9.80;5.97;;;;;;;8.92;100.00;96479.75;10455872;28;20636;-49
2022/06/21 01:19:44;;;;;;;9.60;5.77;;;;;;;8.86;100.00;96482.97;10437688;28;20345;-49
2022/06/21 01:25:05;;;;;;;9.97;5.03;;;;;;;8.87;100.00;96489.03;10436219;28;20192;-53
2022/06/21 01:30:06;;;;;;;8.37;6.30;;;;;;;8.84;100.00;96478.91;10437347;28;20216;-54
2022/06/21 01:35:28;;;;;;;10.93;6.20;;;;;;;8.70;100.00;96488.09;10454885;28;20203;-54
2022/06/21 01:40:31;;;;;;;13.37;6.43;;;;;;;8.64;100.00;96493.91;10436735;28;20230;-54
2022/06/21 01:45:36;;;;;;;8.83;6.10;;;;;;;8.53;100.00;96492.31;10454567;28;20188;-57
2022/06/21 01:50:38;;;;;;;10.83;6.10;;;;;;;8.52;100.00;96488.91;10454516;28;20720;-54
2022/06/21 01:55:45;;;;;;;11.97;5.17;;;;;;;8.57;100.00;96484.06;10436386;28;20199;-54
2022/06/21 02:00:51;;;;;;;9.37;4.73;;;;;;;8.53;100.00;96490.56;10453531;28;20226;-52
2022/06/21 02:05:54;;;;;;;10.17;4.70;;;;;;;8.46;100.00;96486.88;10453947;28;20199;-55
2022/06/21 02:10:58;;;;;;;5.17;4.63;;;;;;;8.39;100.00;96486.63;10454211;22;20240;-52
2022/06/21 02:16:07;;;;;;;7.23;4.50;;;;;;;8.43;100.00;96488.97;10447428;28;20196;-50
2022/06/21 02:21:19;;;;;;;5.13;3.97;;;;;;;8.31;100.00;96486.53;10453017;28;20224;-51
2022/06/21 02:26:21;;;;;;;8.90;4.53;;;;;;;8.19;100.00;96492.94;10452914;28;20187;-50
2022/06/21 02:31:23;;;;;;;5.13;4.40;;;;;;;8.16;100.00;96494.06;10435034;28;20243;-50
2022/06/21 02:36:29;;;;;;;8.57;4.80;;;;;;;8.05;100.00;96494.25;10452038;28;20614;-52
2022/06/21 02:41:33;;;;;;;7.07;4.20;;;;;;;7.97;100.00;96499.41;10434544;28;20277;-57
2022/06/21 02:46:36;;;;;;;14.77;4.80;;;;;;;7.78;100.00;96502.91;10434550;28;20196;-50
2022/06/21 02:51:40;;;;;;;11.10;4.67;;;;;;;7.74;100.00;96491.94;10433851;28;20223;-51
2022/06/21 02:56:48;;;;;;;14.10;4.90;;;;;;;7.56;100.00;96498.88;10452071;28;20192;-54
2022/06/21 03:02:04;;;;;;;12.53;5.40;;;;;;;7.38;100.00;96502.25;10451452;28;20231;-51
2022/06/21 03:07:05;;;;;;;6.40;5.27;;;;;;;7.22;100.00;96502.00;10417558;28;20543;-54
2022/06/21 03:12:06;;;;;;;6.80;5.30;;;;;;;7.11;100.00;96503.81;10432879;28;20701;-51
2022/06/21 03:17:08;;;;;;;8.70;5.20;;;;;;;7.21;100.00;96515.97;10451140;28;20191;-50
2022/06/21 03:22:21;;;;;;;8.53;5.63;;;;;;;7.19;100.00;96508.31;10451239;28;20243;-54
2022/06/21 03:27:46;;;;;;;9.63;5.10;;;;;;;7.23;100.00;96501.03;10450529;28;20203;-58
2022/06/21 03:32:48;;;;;;;9.33;5.70;;;;;;;7.37;100.00;96497.19;10450720;28;20235;-58
2022/06/21 03:37:48;;;;;;;10.73;5.23;;;;;;;7.45;100.00;96497.28;10432393;28;20187;-57
2022/06/21 03:42:50;;;;;;;7.20;5.00;;;;;;;7.54;100.00;96503.44;10450221;28;20643;-54
2022/06/21 03:48:09;;;;;;;6.20;5.17;;;;;;;7.79;100.00;96502.75;10431554;28;20204;-57
2022/06/21 03:53:25;;;;;;;10.90;5.40;;;;;;;8.03;100.00;96496.19;10448447;28;20211;-56
2022/06/21 03:58:52;;;;;;;7.93;5.63;;;;;;;8.27;100.00;96500.03;10431525;28;20259;-56
2022/06/21 04:03:59;;;;;;;9.00;5.20;;;;;;;8.50;100.00;96503.91;10449167;28;20219;-54
2022/06/21 04:09:07;;;;;;;8.00;5.00;;;;;;;8.67;100.00;96511.91;10431657;28;20184;-53
2022/06/21 04:14:19;;;;;;;9.80;5.70;;;;;;;8.79;100.00;96502.88;10431494;28;20243;-55
2022/06/21 04:19:57;;;;;;;8.33;5.30;;;;;;;8.94;100.00;96505.72;10431680;28;20750;-58
2022/06/21 04:25:23;;;;;;;12.03;5.47;;;;;;;9.06;100.00;96514.16;10415462;28;20237;-51
2022/06/21 04:30:28;;;;;;;8.70;6.00;;;;;;;9.05;100.00;96513.34;10431530;28;20760;-54
2022/06/21 04:35:39;;;;;;;11.03;6.00;;;;;;;9.27;100.00;96525.09;10431206;28;20239;-58
2022/06/21 04:40:58;;;;;;;11.40;5.80;;;;;;;9.36;100.00;96528.59;10431429;28;20343;-51
2022/06/21 04:46:04;;;;;;;11.40;5.43;;;;;;;9.33;100.00;96520.25;10431131;28;20250;-51
2022/06/21 04:51:30;;;;;;;11.50;5.90;;;;;;;9.36;100.00;96522.56;10430966;28;20841;-54
2022/06/21 04:56:51;;;;;;;9.83;5.70;;;;;;;9.66;100.00;96520.44;10431176;28;20555;-56
2022/06/21 05:01:52;;;;;;;13.40;5.37;;;;;;;9.79;100.00;96520.84;10437695;28;20261;-50
2022/06/21 05:06:55;;;;;;;9.67;4.93;;;;;;;10.15;100.00;96523.25;10437658;28;20215;-54
2022/06/21 05:12:11;;;;;;;9.77;4.70;;;;;;;10.42;100.00;96522.22;10454869;28;20228;-51
2022/06/21 05:17:15;;;;;;;11.53;5.30;;;;;;;10.49;100.00;96532.88;10454688;28;20240;-51
2022/06/21 05:22:30;;;;;;;9.13;4.67;;;;;;;10.60;100.00;96545.69;10461867;28;20645;-51
2022/06/21 05:27:34;;;;;;;12.67;5.03;;;;;;;10.82;100.00;96543.41;10495960;28;20191;-50
2022/06/21 05:32:40;;;;;;;12.63;4.17;;;;;;;10.74;100.00;96548.66;10477981;28;20659;-52
2022/06/21 05:37:56;;;;;;;9.27;4.33;;;;;;;10.46;100.00;96552.38;10477615;28;20568;-51
2022/06/21 05:42:56;;;;;;;6.50;4.37;;;;;;;10.73;100.00;96555.69;10481683;28;20890;-50
2022/06/21 05:48:00;;;;;;;14.70;4.90;;;;;;;10.99;100.00;96550.31;10459869;28;20257;-50
2022/06/21 05:53:09;;;;;;;6.13;4.20;;;;;;;11.09;100.00;96562.44;10466502;28;20222;-51
2022/06/21 05:58:31;;;;;;;6.67;4.00;;;;;;;11.47;100.00;96552.25;10492400;28;20554;-53
2022/06/21 06:03:41;;;;;;;5.75;4.35;;;;;;;11.77;100.00;96556.78;10483113;28;20216;-49
2022/06/21 06:08:44;;;;;;;10.73;3.75;;;;;;;11.49;100.00;96566.03;10467015;28;20212;-49
2022/06/21 06:13:46;;;;;;;12.23;3.90;;;;;;;12.00;100.00;96553.47;10453845;28;20728;-51
2022/06/21 06:18:52;;;;;;;10.38;3.50;;;;;;;12.25;100.00;96545.50;10461665;28;20216;-53
2022/06/21 06:24:00;;;;;;;11.60;3.65;;;;;;;12.93;100.00;96538.72;10450338;28;20223;-51
2022/06/21 06:29:17;;;;;;;9.65;3.60;;;;;;;12.61;100.00;96532.69;10450227;28;20192;-52
2022/06/21 06:34:21;;;;;;;6.22;3.22;;;;;;;13.08;98.75;96525.63;10449472;28;20215;-51
2022/06/21 06:39:24;;;;;;;8.15;3.15;;;;;;;13.05;98.69;96538.28;10474102;28;20214;-54
2022/06/21 06:44:27;;;;;;;8.88;2.58;;;;;;;12.44;98.32;96539.03;10487135;28;20313;-55
2022/06/21 06:49:42;;;;;;;6.70;2.60;;;;;;;12.33;100.00;96542.84;10485590;28;20186;-53
2022/06/21 06:55:33;;;;;;;4.57;2.38;;;;;;;12.55;99.48;96529.94;10484330;28;20702;-54
2022/06/21 07:00:40;;;;;;;6.18;2.47;;;;;;;13.98;90.44;96502.91;10403179;28;20235;-52
2022/06/21 07:05:47;;;;;;;4.82;2.35;;;;;;;13.54;92.34;96535.28;10470321;28;20772;-51
2022/06/21 07:10:48;;;;;;;7.03;2.70;;;;;;;13.40;92.86;96539.53;10466703;28;20237;-53
2022/06/21 07:16:00;;;;;;;9.98;3.15;;;;;;;13.19;97.36;96569.09;10480316;28;20222;-55
2022/06/21 07:21:00;;;;;;;6.30;2.63;;;;;;;13.83;92.27;96547.66;10466848;28;20222;-54
2022/06/21 07:26:21;;;;;;;6.40;2.10;;;;;;;14.69;83.42;96499.66;10485035;28;20657;-53
2022/06/21 07:31:35;;;;;;;7.00;2.60;;;;;;;14.92;84.06;96522.41;10469095;28;20203;-51
2022/06/21 07:36:43;;;;;;;6.72;2.00;;;;;;;14.84;84.61;96519.88;10469730;28;20183;-52
2022/06/21 07:41:49;;;;;;;7.80;2.60;;;;;;;15.72;78.22;96479.97;10468441;28;20916;-51
2022/06/21 07:47:00;;;;;;;5.05;1.90;;;;;;;17.00;75.36;96451.09;10467007;28;20692;-54
2022/06/21 07:52:33;;;;;;;7.30;1.90;;;;;;;14.61;78.88;96495.31;10470573;28;20211;-54
2022/06/21 07:57:37;;;;;;;5.53;1.85;;;;;;;16.25;71.77;96398.28;10471072;28;20215;-53
2022/06/21 08:08:28;;;;;;;6.57;2.10;;;;;;;16.06;71.80;96434.22;10473689;28;20190;-54
2022/06/21 08:13:29;;;;;;;6.43;1.70;;;;;;;16.64;71.49;96446.97;10490179;28;20261;-52
2022/06/21 08:18:36;;;;;;;5.28;1.77;;;;;;;17.09;66.02;96365.19;10488403;28;20218;-52
2022/06/21 08:23:48;;;;;;;3.85;1.38;;;;;;;17.53;66.96;96417.63;10489665;28;20583;-51
2022/06/21 08:28:52;;;;;;;8.15;2.03;;;;;;;17.33;67.06;96441.50;10488128;28;20574;-52
2022/06/21 08:34:00;;;;;;;4.75;1.80;;;;;;;15.03;73.91;96519.25;10477409;28;20215;-54
2022/06/21 08:39:15;;;;;;;4.45;1.92;;;;;;;15.87;74.09;96528.22;10497333;28;20585;-52
2022/06/21 08:44:40;;;;;;;6.78;2.30;;;;;;;15.37;74.71;96553.84;10479260;28;20294;-52
2022/06/21 08:50:28;;;;;;;9.45;2.90;;;;;;;14.19;79.69;96599.59;10479074;28;20191;-54
2022/06/21 08:56:08;;;;;;;7.18;2.45;;;;;;;16.04;72.76;96500.47;10496612;28;20221;-50
2022/06/21 09:01:22;;;;;;;4.72;1.83;;;;;;;17.12;68.67;96456.59;10477134;28;20215;-51
2022/06/21 09:06:41;;;;;;;3.45;1.92;;;;;;;17.67;64.04;96397.22;10477815;28;20195;-53
2022/06/21 09:12:16;;;;;;;7.97;2.58;;;;;;;17.63;66.78;96461.22;10495775;28;20283;-52
2022/06/21 09:17:18;;;;;;;7.00;2.67;;;;;;;14.92;72.36;96512.66;10495171;28;20210;-53
2022/06/21 09:22:31;;;;;;;4.80;1.80;;;;;;;16.21;69.27;96482.44;10495970;28;20246;-52
2022/06/21 09:27:49;;;;;;;5.80;2.55;;;;;;;15.56;70.78;96518.88;10477431;28;20963;-55
2022/06/21 09:33:23;;;;;;;9.05;2.65;;;;;;;15.43;72.66;96551.25;10495097;28;20218;-56
2022/06/21 09:38:36;;;;;;;9.38;2.72;;;;;;;15.78;70.42;96508.25;10494326;28;20235;-55
2022/06/21 09:43:56;;;;;;;7.78;2.50;;;;;;;17.44;65.41;96440.88;10476793;28;20589;-56
2022/06/21 09:49:07;;;;;;;4.85;2.00;;;;;;;19.57;55.87;96290.06;10496388;28;20190;-55
2022/06/21 09:54:42;;;;;;;6.80;2.22;;;;;;;18.68;58.34;96340.78;10479527;28;20681;-55
2022/06/21 10:00:08;;;;;;;6.05;2.80;;;;;;;16.40;66.41;96478.25;10427723;28;20230;-59
2022/06/21 10:05:21;;;;;;;4.07;1.83;;;;;;;18.56;58.99;96363.75;10480452;28;20226;-58
2022/06/21 10:10:35;;;;;;;10.23;1.98;;;;;;;19.63;56.27;96332.69;10477491;28;20206;-56
2022/06/21 10:15:42;;;;;;;3.90;1.58;;;;;;;19.42;54.53;96281.66;10478604;28;20235;-57
2022/06/21 10:20:53;;;;;;;5.78;2.15;;;;;;;18.87;57.40;96346.16;10478375;28;20223;-59
2022/06/21 10:26:01;;;;;;;5.57;2.00;;;;;;;20.02;56.12;96359.84;10496220;28;20202;-57
2022/06/21 10:31:11;;;;;;;4.82;1.80;;;;;;;19.50;55.86;96352.28;10496277;28;20187;-53
2022/06/21 10:36:18;;;;;;;3.75;1.73;;;;;;;20.42;53.69;96327.34;10478180;28;20315;-54
2022/06/21 10:47:26;;;;;;;4.50;1.55;;;;;;;21.16;50.90;96289.66;10494778;28;20206;-53
2022/06/21 10:52:56;;;;;;;3.10;1.38;;;;;;;21.41;49.99;96269.91;10495279;28;20591;-55
2022/06/21 10:58:20;;;;;;;2.10;1.63;;;;;;;23.10;46.31;96221.19;10493313;28;20207;-54
2022/06/21 11:03:32;;;;;;;3.10;1.52;;;;;;;20.58;48.30;96177.66;10477204;28;20211;-55
2022/06/21 11:08:45;;;;;;;4.82;1.48;;;;;;;22.17;46.14;96192.34;10477162;28;20198;-54
2022/06/21 11:13:51;;;;;;;4.13;1.52;;;;;;;23.98;44.05;96188.16;10494225;28;20254;-56
2022/06/21 11:19:12;;;;;;;5.60;1.50;;;;;;;24.02;42.59;96152.59;10453848;28;20737;-57
2022/06/21 11:24:15;;;;;;;4.25;1.17;;;;;;;23.76;43.37;96172.97;10473187;28;20247;-57
2022/06/21 11:29:31;;;;;;;2.53;1.40;;;;;;;25.42;41.63;96187.13;10484902;28;20244;-56
2022/06/21 11:35:23;;;;;;;6.63;1.20;;;;;;;24.88;42.14;96166.78;10476334;28;20206;-55
2022/06/21 11:46:50;;;;;;;3.70;1.05;;;;;;;25.23;41.16;96127.78;10453905;28;20184;-54
2022/06/21 11:52:07;;;;;;;4.80;1.15;;;;;;;25.44;40.12;96111.78;10451811;28;20579;-56
2022/06/21 11:57:17;;;;;;;3.92;1.10;;;;;;;26.08;39.13;96109.66;10451863;28;20226;-56
2022/06/21 12:02:27;;;;;;;2.35;1.20;;;;;;;26.05;37.54;96056.50;10434068;28;20698;-55
2022/06/21 12:07:39;;;;;;;3.25;0.90;;;;;;;25.81;39.83;96134.88;10449824;28;20262;-59
2022/06/21 12:13:01;;;;;;;1.95;1.10;;;;;;;26.21;38.14;96082.25;10451607;28;20231;-57
2022/06/21 12:18:15;;;;;;;2.40;1.00;;;;;;;22.61;42.63;96088.38;10451199;28;20191;-53
2022/06/21 12:23:25;;;;;;;3.17;1.10;;;;;;;24.34;40.70;96078.69;10433876;28;20215;-54
2022/06/21 12:28:28;;;;;;;1.23;0.68;;;;;;;26.52;38.03;96091.03;10451695;28;20748;-58
2022/06/21 12:33:36;;;;;;;2.28;0.80;;;;;;;27.52;36.46;96088.41;10433652;28;20219;-55
2022/06/21 12:38:41;;;;;;;2.38;1.20;;;;;;;26.59;38.49;96081.88;10450947;28;20269;-58
2022/06/21 12:44:04;;;;;;;5.70;1.08;;;;;;;28.43;35.47;96068.97;10451254;28;20212;-59
2022/06/21 12:49:06;;;;;;;3.17;0.95;;;;;;;27.64;37.41;96090.72;10450634;28;20279;-57
2022/06/21 12:54:37;;;;;;;2.88;0.90;;;;;;;28.06;35.05;96023.88;10450862;28;20211;-57
2022/06/21 12:59:59;;;;;;;4.43;0.90;;;;;;;27.60;36.59;96065.47;10425751;28;20248;-59
2022/06/21 13:05:28;;;;;;;4.95;1.00;;;;;;;27.43;35.47;96016.63;10451057;28;20219;-59
2022/06/21 13:10:53;;;;;;;3.75;0.90;;;;;;;27.19;36.77;96028.88;10450619;28;20603;-55
2022/06/21 13:16:31;;;;;;;2.60;1.00;;;;;;;27.28;36.06;96014.84;10432660;28;20208;-58
2022/06/21 13:21:41;;;;;;;1.63;0.80;;;;;;;29.42;34.03;96042.38;10457978;28;20256;-58
2022/06/21 13:26:47;;;;;;;4.00;1.15;;;;;;;23.77;38.24;95884.94;10439941;28;20673;-55
2022/06/21 13:31:57;;;;;;;1.67;0.73;;;;;;;23.81;38.52;95945.66;10457343;28;20212;-54
2022/06/21 13:37:00;;;;;;;2.58;0.98;;;;;;;24.18;38.41;95976.06;10439723;28;20219;-56
2022/06/21 13:47:48;;;;;;;8.13;0.68;;;;;;;24.51;39.89;96035.66;10441394;28;20623;-57
2022/06/21 13:52:53;;;;;;;4.40;1.00;;;;;;;27.89;35.25;96019.72;10438563;28;20204;-56
2022/06/21 13:58:05;;;;;;;1.35;1.00;;;;;;;30.83;30.71;95980.84;10456330;28;20287;-58
2022/06/21 14:03:30;;;;;;;3.97;0.90;;;;;;;31.23;30.10;95977.53;10438739;28;20748;-58
2022/06/21 14:08:36;;;;;;;2.22;0.98;;;;;;;32.46;28.25;95943.69;10437902;28;20196;-59
2022/06/21 14:13:41;;;;;;;3.33;0.95;;;;;;;31.32;29.45;95923.44;10438125;28;20609;-58
2022/06/21 14:18:42;;;;;;;1.88;0.82;;;;;;;32.35;28.71;95960.25;10437836;28;20226;-59
2022/06/21 14:23:49;;;;;;;1.38;0.70;;;;;;;32.31;28.44;95951.16;10455503;28;20211;-58
2022/06/21 14:29:04;;;;;;;2.33;0.90;;;;;;;28.19;32.13;95852.72;10436732;28;20658;-58
2022/06/21 14:34:12;;;;;;;3.20;0.77;;;;;;;31.23;28.83;95899.84;10455307;28;20219;-59
2022/06/21 14:39:20;;;;;;;1.85;0.60;;;;;;;30.49;29.94;95865.91;10453657;28;20714;-59
2022/06/21 14:44:24;;;;;;;2.85;0.77;;;;;;;29.70;31.84;95910.16;10436908;28;20215;-58
2022/06/21 14:49:33;;;;;;;3.83;0.80;;;;;;;28.50;32.54;95890.81;10454293;28;20722;-58
2022/06/21 14:54:47;;;;;;;1.42;0.73;;;;;;;30.04;31.79;95946.81;10436054;28;20224;-58
2022/06/21 15:00:30;;;;;;;2.55;0.90;;;;;;;29.19;31.18;95874.09;10435832;28;20227;-58
2022/06/21 15:05:56;;;;;;;3.38;0.85;;;;;;;28.47;33.61;95913.75;10433142;28;20268;-57
2022/06/21 15:11:52;;;;;;;1.48;0.68;;;;;;;29.81;30.99;95856.78;10436123;28;20188;-58
2022/06/21 15:16:55;;;;;;;1.60;0.70;;;;;;;31.46;29.10;95881.66;10452656;28;20214;-58
2022/06/21 15:21:58;;;;;;;5.22;0.70;;;;;;;28.64;31.83;95816.22;10453458;28;20219;-56
2022/06/21 15:27:02;;;;;;;0.98;0.50;;;;;;;31.83;28.91;95884.19;10452786;28;20200;-54
2022/06/21 15:32:03;;;;;;;2.50;0.70;;;;;;;31.30;29.76;95873.13;10435289;28;20222;-54
2022/06/21 15:37:12;;;;;;;2.75;0.60;;;;;;;31.80;29.66;95896.44;10434768;28;20793;-55
2022/06/21 15:42:16;;;;;;;1.58;0.80;;;;;;;31.93;29.07;95861.44;10451689;28;20369;-56
2022/06/21 15:53:05;;;;;;;2.90;0.80;;;;;;;29.61;31.99;95864.16;10452401;28;20200;-53
2022/06/21 15:58:14;;;;;;;4.25;0.90;;;;;;;25.59;36.37;95874.91;10451888;28;20682;-54
2022/06/21 16:03:26;;;;;;;8.18;0.95;;;;;;;25.23;37.66;95907.16;10452126;28;20212;-52
2022/06/21 16:08:34;;;;;;;3.10;0.90;;;;;;;25.17;38.28;95938.53;10432845;28;20192;-55
2022/06/21 16:13:35;;;;;;;2.70;1.00;;;;;;;24.94;38.98;95953.25;10433724;28;20236;-56
2022/06/21 16:18:38;;;;;;;3.30;0.80;;;;;;;23.73;41.68;95996.94;10451489;28;20655;-57
2022/06/21 16:23:39;;;;;;;1.27;0.70;;;;;;;24.40;39.50;95976.69;10451418;28;20294;-55
2022/06/21 16:28:52;;;;;;;3.97;0.90;;;;;;;24.79;39.82;95977.34;10433607;28;20198;-52
2022/06/21 16:33:56;;;;;;;1.75;0.82;;;;;;;23.88;41.27;95998.16;10451586;28;20216;-56
2022/06/21 16:39:00;;;;;;;4.47;1.52;;;;;;;23.61;40.93;95989.13;10433332;28;20863;-57
2022/06/21 16:44:04;;;;;;;3.22;1.05;;;;;;;22.91;43.40;96034.50;10457143;28;20215;-53
2022/06/21 16:49:12;;;;;;;1.80;0.90;;;;;;;22.65;43.61;96017.41;10492078;28;20187;-57
2022/06/21 16:54:24;;;;;;;4.22;0.90;;;;;;;22.97;42.59;96014.78;10496728;28;20682;-57
2022/06/21 16:59:26;;;;;;;4.05;0.70;;;;;;;23.58;41.29;95986.97;10499537;28;20211;-57
2022/06/21 17:04:30;;;;;;;2.50;0.88;;;;;;;23.23;43.16;96022.25;10499676;28;20203;-57
2022/06/21 17:09:33;;;;;;;3.28;0.88;;;;;;;22.52;43.73;96007.09;10481666;28;20266;-57
2022/06/21 17:14:48;;;;;;;2.78;1.00;;;;;;;22.13;44.89;96042.63;10498685;28;20245;-55
2022/06/21 17:20:14;;;;;;;4.45;0.82;;;;;;;22.39;43.23;96019.78;10498283;28;20235;-57
2022/06/21 17:25:16;;;;;;;3.70;1.30;;;;;;;21.95;45.27;96066.91;10480773;28;20211;-56
2022/06/21 17:30:44;;;;;;;5.53;1.27;;;;;;;21.92;45.37;96065.53;10497871;28;20194;-52
2022/06/21 17:35:51;;;;;;;5.53;1.20;;;;;;;21.86;45.24;96074.53;10476340;28;20659;-55
2022/06/21 17:41:09;;;;;;;2.10;0.90;;;;;;;21.70;45.13;96062.78;10497856;28;20273;-52
2022/06/21 17:46:13;;;;;;;3.63;0.93;;;;;;;21.30;46.69;96069.06;10497582;28;20313;-55
2022/06/21 17:51:18;;;;;;;1.98;1.13;;;;;;;21.10;47.53;96082.81;10480006;28;20257;-57
2022/06/21 17:56:24;;;;;;;3.85;1.08;;;;;;;20.92;47.94;96097.13;10479596;28;20274;-56
2022/06/21 18:01:41;;;;;;;4.60;1.08;;;;;;;20.56;48.02;96080.44;10497506;28;20709;-55
2022/06/21 18:06:48;;;;;;;3.90;1.10;;;;;;;20.71;48.24;96106.59;10495986;28;20191;-57
2022/06/21 18:12:01;;;;;;;2.72;0.93;;;;;;;20.29;49.73;96123.50;10477919;28;20257;-57
2022/06/21 18:17:07;;;;;;;4.35;0.93;;;;;;;20.39;48.46;96093.69;10495829;28;20575;-54
2022/06/21 18:22:19;;;;;;;3.03;1.05;;;;;;;20.16;49.15;96129.91;10478590;28;20740;-57
2022/06/21 18:27:20;;;;;;;3.25;1.30;;;;;;;19.67;50.35;96143.34;10478481;28;20666;-52
2022/06/21 18:32:53;;;;;;;3.20;1.35;;;;;;;19.47;51.08;96158.78;10496933;28;20218;-55
2022/06/21 18:38:16;;;;;;;8.35;1.60;;;;;;;19.26;51.59;96155.56;10478135;28;20270;-53
2022/06/21 18:43:34;;;;;;;1.63;1.08;;;;;;;19.21;51.63;96163.41;10478034;28;20219;-54
2022/06/21 18:49:10;;;;;;;3.65;0.95;;;;;;;18.79;54.01;96203.91;10477549;28;20564;-54
2022/06/21 18:54:33;;;;;;;2.78;1.00;;;;;;;18.30;56.24;96248.03;10495753;28;20214;-54
2022/06/21 19:00:07;;;;;;;3.25;1.10;;;;;;;17.06;60.36;96315.31;10477355;28;20222;-58
2022/06/21 19:11:26;;;;;;;3.20;1.48;;;;;;;15.43;67.68;96398.13;10494587;28;20709;-55
2022/06/21 19:16:56;;;;;;;2.58;1.38;;;;;;;14.87;71.42;96367.38;10493675;28;20191;-55
2022/06/21 19:22:27;;;;;;;2.08;1.50;;;;;;;14.78;72.55;96334.22;10494270;28;20735;-56
2022/06/21 19:27:43;;;;;;;1.52;1.10;;;;;;;14.44;74.60;96322.56;10466531;28;20666;-54
2022/06/21 19:32:56;;;;;;;1.98;1.55;;;;;;;13.96;77.13;96359.22;10476711;28;20558;-52
2022/06/21 19:38:00;;;;;;;4.70;1.88;;;;;;;14.23;74.98;96350.56;10475991;28;20187;-51
2022/06/21 19:43:06;;;;;;;3.05;1.75;;;;;;;13.66;79.37;96385.59;10475980;28;20230;-54
2022/06/21 19:48:13;;;;;;;2.15;1.73;;;;;;;13.77;80.03;96379.03;10493216;28;20195;-55
2022/06/21 19:53:39;;;;;;;4.05;2.72;;;;;;;13.81;79.58;96373.22;10476030;28;20211;-54
2022/06/21 19:58:43;;;;;;;5.70;1.70;;;;;;;13.82;79.03;96361.69;10493160;28;20211;-51
2022/06/21 20:03:44;;;;;;;7.50;1.95;;;;;;;13.83;79.02;96368.59;10493624;28;20211;-52
2022/06/21 20:08:45;;;;;;;2.33;1.90;;;;;;;13.72;79.17;96367.28;10493012;28;20199;-51
2022/06/21 20:14:00;;;;;;;2.05;1.77;;;;;;;13.67;79.99;96366.19;10506231;23;20242;-55
2022/06/21 20:19:30;;;;;;;2.67;1.85;;;;;;;13.42;81.75;96377.00;10327140;28;20218;-52
2022/06/21 20:24:47;;;;;;;5.93;1.98;;;;;;;13.28;82.42;96359.41;10329400;28;20273;-55
2022/06/21 20:29:51;;;;;;;4.18;1.75;;;;;;;13.11;83.65;96358.75;10332199;28;20198;-53
2022/06/21 20:35:27;;;;;;;4.93;2.35;;;;;;;13.06;83.71;96375.06;10336804;28;20220;-53
2022/06/21 20:40:27;;;;;;;2.92;1.67;;;;;;;12.99;84.32;96363.66;10330790;28;20839;-53
2022/06/21 20:45:32;;;;;;;3.92;2.15;;;;;;;12.89;85.03;96363.91;10336886;28;20217;-54
2022/06/21 20:50:36;;;;;;;2.53;1.90;;;;;;;12.81;85.07;96367.44;10328862;28;20546;-53
2022/06/21 20:56:21;;;;;;;4.95;2.30;;;;;;;12.67;86.55;96357.72;10336605;28;20217;-52
2022/06/21 21:01:25;;;;;;;7.43;2.45;;;;;;;12.58;86.89;96341.19;10336407;28;20217;-52
2022/06/21 21:06:27;;;;;;;5.55;2.13;;;;;;;12.44;88.14;96337.53;10334884;28;20689;-54
2022/06/21 21:11:28;;;;;;;2.25;2.00;;;;;;;12.37;88.81;96327.91;10334001;28;20692;-52
2022/06/21 21:16:29;;;;;;;3.47;2.17;;;;;;;12.19;90.42;96325.59;10356513;28;20241;-53
2022/06/21 21:21:52;;;;;;;3.65;2.38;;;;;;;12.11;91.02;96315.97;10375457;28;20283;-52
2022/06/21 21:26:57;;;;;;;4.15;2.33;;;;;;;11.99;91.24;96326.09;10375779;28;20703;-52
2022/06/21 21:32:23;;;;;;;4.67;2.37;;;;;;;11.86;93.35;96331.06;10375548;28;20195;-55
2022/06/21 21:37:49;;;;;;;3.60;2.30;;;;;;;11.82;93.63;96338.44;10375490;28;20220;-53
2022/06/21 21:43:16;;;;;;;3.07;2.07;;;;;;;11.66;95.22;96357.72;10374799;28;20712;-53
2022/06/21 21:48:17;;;;;;;4.23;2.30;;;;;;;11.60;96.21;96347.94;10357841;28;20215;-53
2022/06/21 21:53:17;;;;;;;3.70;2.50;;;;;;;11.45;97.58;96350.44;10374489;28;20198;-52
2022/06/21 21:58:19;;;;;;;3.07;2.20;;;;;;;11.36;98.51;96357.56;10374740;28;20590;-52
2022/06/21 22:03:22;;;;;;;4.17;2.13;;;;;;;11.24;100.00;96353.66;10374097;28;20284;-52
2022/06/21 22:08:52;;;;;;;4.73;2.40;;;;;;;11.17;100.00;96350.09;10374065;28;20217;-52
2022/06/21 22:14:26;;;;;;;3.60;2.23;;;;;;;11.07;100.00;96348.47;10373306;28;20201;-52
2022/06/21 22:19:50;;;;;;;5.43;2.47;;;;;;;11.03;100.00;96338.50;10373231;28;20221;-54
2022/06/21 22:24:50;;;;;;;5.57;2.50;;;;;;;11.02;100.00;96342.91;10336255;28;20225;-52
2022/06/21 22:29:51;;;;;;;3.13;2.20;;;;;;;10.82;100.00;96339.03;10374701;28;20561;-56
2022/06/21 22:34:53;;;;;;;4.73;2.40;;;;;;;10.84;100.00;96340.50;10371879;28;20221;-56
2022/06/21 22:39:56;;;;;;;4.73;2.50;;;;;;;10.92;100.00;96346.69;10354150;28;20308;-55
2022/06/21 22:45:01;;;;;;;2.83;2.57;;;;;;;10.87;100.00;96352.44;10372937;28;20221;-57
2022/06/21 22:50:07;;;;;;;5.00;2.67;;;;;;;10.85;100.00;96350.00;10371813;28;20217;-54
2022/06/21 22:55:09;;;;;;;3.50;2.57;;;;;;;10.82;100.00;96352.13;10372500;28;20692;-55
2022/06/21 23:00:15;;;;;;;7.30;2.77;;;;;;;10.77;100.00;96363.13;10354497;28;20268;-55
2022/06/21 23:05:19;;;;;;;3.93;2.10;;;;;;;10.78;100.00;96369.16;10372234;28;20225;-56
2022/06/21 23:10:33;;;;;;;5.87;2.90;;;;;;;10.89;100.00;96371.47;10371431;28;20201;-56
2022/06/21 23:15:36;;;;;;;3.53;2.20;;;;;;;11.02;100.00;96371.72;10371019;28;20380;-54
2022/06/21 23:20:36;;;;;;;5.40;2.40;;;;;;;10.96;100.00;96371.59;10353610;28;20225;-53
2022/06/21 23:25:39;;;;;;;4.17;2.40;;;;;;;11.17;100.00;96369.25;10371125;28;20577;-57
2022/06/21 23:30:40;;;;;;;5.97;2.30;;;;;;;11.11;100.00;96362.06;10371023;28;20554;-53
2022/06/21 23:35:46;;;;;;;3.60;2.40;;;;;;;11.25;100.00;96360.53;10371400;28;20692;-53
2022/06/21 23:40:46;;;;;;;3.40;2.30;;;;;;;11.40;98.61;96347.53;10372860;28;20304;-57
2022/06/21 23:45:47;;;;;;;2.40;1.60;;;;;;;11.51;97.98;96344.50;10377892;28;20610;-53
2022/06/21 23:50:47;;;;;;;4.10;2.22;;;;;;;11.73;95.68;96334.25;10370523;28;20275;-53
2022/06/21 23:55:48;;;;;;;6.32;2.38;;;;;;;11.90;94.08;96335.78;10370449;28;21058;-53
